createdAt,value
2022-08-18T00:01:20.072Z,3.97
2022-08-18T00:03:56.330Z,4.50
2022-08-18T00:06:29.923Z,3.90
2022-08-18T00:08:58.875Z,4.18
2022-08-18T00:11:25.998Z,4.20
2022-08-18T00:13:53.165Z,3.80
2022-08-18T00:16:20.069Z,3.65
2022-08-18T00:18:46.984Z,3.97
2022-08-18T00:21:13.912Z,4.20
2022-08-18T00:23:40.892Z,4.30
2022-08-18T00:26:07.818Z,4.50
2022-08-18T00:28:34.894Z,4.35
2022-08-18T00:31:01.886Z,3.83
2022-08-18T00:33:28.785Z,4.05
2022-08-18T00:35:56.789Z,4.00
2022-08-18T00:38:25.349Z,4.05
2022-08-18T00:40:54.200Z,4.55
2022-08-18T00:43:48.691Z,3.80
2022-08-18T00:46:22.168Z,3.95
2022-08-18T00:48:49.874Z,4.05
2022-08-18T00:51:29.949Z,4.43
2022-08-18T00:54:02.499Z,4.47
2022-08-18T00:56:36.833Z,4.32
2022-08-18T00:59:08.337Z,4.22
2022-08-18T01:01:35.504Z,4.10
2022-08-18T01:04:06.621Z,4.10
2022-08-18T01:06:40.165Z,3.97
2022-08-18T01:09:08.694Z,4.25
2022-08-18T01:11:38.382Z,3.97
2022-08-18T01:14:06.645Z,4.35
2022-08-18T01:16:56.834Z,4.45
2022-08-18T01:19:44.222Z,4.30
2022-08-18T01:22:19.843Z,4.40
2022-08-18T01:25:05.097Z,3.92
2022-08-18T01:27:32.499Z,4.18
2022-08-18T01:30:07.627Z,4.22
2022-08-18T01:32:34.609Z,4.05
2022-08-18T01:35:01.581Z,4.68
2022-08-18T01:37:29.129Z,4.05
2022-08-18T01:41:24.577Z,4.20
2022-08-18T01:42:43.629Z,4.15
2022-08-18T01:45:12.359Z,4.18
2022-08-18T01:47:47.813Z,4.20
2022-08-18T01:50:25.025Z,4.10
2022-08-18T01:52:53.866Z,4.00
2022-08-18T01:55:21.351Z,3.72
2022-08-18T01:57:48.312Z,4.20
2022-08-18T02:00:17.576Z,4.25
2022-08-18T02:02:44.671Z,4.03
2022-08-18T02:05:15.179Z,4.10
2022-08-18T02:07:42.640Z,4.50
2022-08-18T02:10:12.484Z,3.67
2022-08-18T02:12:43.940Z,4.05
2022-08-18T02:15:12.158Z,3.97
2022-08-18T02:17:40.105Z,4.32
2022-08-18T02:20:08.910Z,4.25
2022-08-18T02:22:36.025Z,4.00
2022-08-18T02:25:03.153Z,3.80
2022-08-18T02:27:30.278Z,4.20
2022-08-18T02:30:00.074Z,4.93
2022-08-18T02:32:28.599Z,4.30
2022-08-18T02:34:56.525Z,3.87
2022-08-18T02:37:23.476Z,3.92
2022-08-18T02:39:50.461Z,4.00
2022-08-18T02:42:18.110Z,3.95
2022-08-18T02:44:45.087Z,4.22
2022-08-18T02:47:12.077Z,4.20
2022-08-18T02:49:39.265Z,4.10
2022-08-18T02:52:06.338Z,4.18
2022-08-18T02:54:33.629Z,3.95
2022-08-18T02:57:00.541Z,4.57
2022-08-18T02:59:27.994Z,4.12
2022-08-18T03:01:59.039Z,4.87
2022-08-18T03:04:29.878Z,4.43
2022-08-18T03:06:59.424Z,4.57
2022-08-18T03:09:27.092Z,4.22
2022-08-18T03:11:54.759Z,4.30
2022-08-18T03:14:22.148Z,4.32
2022-08-18T03:16:53.641Z,4.85
2022-08-18T03:19:23.358Z,4.37
2022-08-18T03:21:51.151Z,4.65
2022-08-18T03:24:23.013Z,4.32
2022-08-18T03:26:52.441Z,4.20
2022-08-18T03:29:19.864Z,4.50
2022-08-18T03:31:48.930Z,4.57
2022-08-18T03:34:19.923Z,4.53
2022-08-18T03:36:48.006Z,4.62
2022-08-18T03:39:15.020Z,4.50
2022-08-18T03:41:58.634Z,4.80
2022-08-18T03:44:31.440Z,4.47
2022-08-18T03:46:58.721Z,4.50
2022-08-18T03:49:27.050Z,4.43
2022-08-18T03:51:57.228Z,4.30
2022-08-18T03:54:24.349Z,4.43
2022-08-18T03:56:51.282Z,4.90
2022-08-18T03:59:21.574Z,4.85
2022-08-18T04:01:50.274Z,4.22
2022-08-18T04:04:20.181Z,4.75
2022-08-18T04:06:50.601Z,4.50
2022-08-18T04:09:18.672Z,4.55
2022-08-18T04:11:46.111Z,5.53
2022-08-18T04:14:15.759Z,5.00
2022-08-18T04:16:43.112Z,4.85
2022-08-18T04:19:13.602Z,4.62
2022-08-18T04:21:42.442Z,4.12
2022-08-18T04:24:11.606Z,4.40
2022-08-18T04:26:44.141Z,4.35
2022-08-18T04:29:13.016Z,4.50
2022-08-18T04:31:40.235Z,4.50
2022-08-18T04:34:07.545Z,4.50
2022-08-18T04:36:35.966Z,4.40
2022-08-18T04:39:05.267Z,4.50
2022-08-18T04:41:32.231Z,4.75
2022-08-18T04:44:01.367Z,4.65
2022-08-18T04:46:29.806Z,5.05
2022-08-18T04:48:59.433Z,4.75
2022-08-18T04:52:36.099Z,4.62
2022-08-18T04:54:16.644Z,5.35
2022-08-18T04:56:43.760Z,4.90
2022-08-18T04:59:14.901Z,5.30
2022-08-18T05:01:45.758Z,4.45
2022-08-18T05:04:14.468Z,4.85
2022-08-18T05:06:43.515Z,4.62
2022-08-18T05:09:12.524Z,4.87
2022-08-18T05:11:44.701Z,4.80
2022-08-18T05:14:12.122Z,4.20
2022-08-18T05:16:48.030Z,4.87
2022-08-18T05:19:19.963Z,4.50
2022-08-18T05:21:53.572Z,4.78
2022-08-18T05:24:33.555Z,6.47
2022-08-18T05:27:04.151Z,4.65
2022-08-18T05:29:41.937Z,4.45
2022-08-18T05:32:41.044Z,4.62
2022-08-18T05:35:15.774Z,4.15
2022-08-18T05:37:54.563Z,4.12
2022-08-18T05:40:24.588Z,4.10
2022-08-18T05:42:51.599Z,4.37
2022-08-18T05:45:19.874Z,4.50
2022-08-18T05:47:46.885Z,4.05
2022-08-18T05:50:18.513Z,4.55
2022-08-18T05:52:59.651Z,4.72
2022-08-18T05:55:50.631Z,4.30
2022-08-18T05:58:48.612Z,4.72
2022-08-18T06:01:27.806Z,4.72
2022-08-18T06:04:02.522Z,4.62
2022-08-18T06:06:31.167Z,4.70
2022-08-18T06:09:19.307Z,4.20
2022-08-18T06:11:47.469Z,4.85
2022-08-18T06:14:14.531Z,4.50
2022-08-18T06:17:03.405Z,5.00
2022-08-18T06:19:49.637Z,4.70
2022-08-18T06:22:48.170Z,4.60
2022-08-18T06:25:27.518Z,4.82
2022-08-18T06:28:08.230Z,5.03
2022-08-18T06:30:35.125Z,5.70
2022-08-18T06:33:33.856Z,5.22
2022-08-18T06:36:14.491Z,5.00
2022-08-18T06:39:16.865Z,5.30
2022-08-18T06:41:49.309Z,5.35
2022-08-18T06:44:57.556Z,5.43
2022-08-18T06:47:41.026Z,5.43
2022-08-18T06:50:13.938Z,5.93
2022-08-18T06:52:54.141Z,5.53
2022-08-18T06:55:39.217Z,5.53
2022-08-18T06:58:22.604Z,5.32
2022-08-18T07:00:54.973Z,5.60
2022-08-18T07:03:44.980Z,5.22
2022-08-18T07:06:23.789Z,5.85
2022-08-18T07:08:53.693Z,6.25
2022-08-18T07:11:25.056Z,5.12
2022-08-18T07:14:15.024Z,6.35
2022-08-18T07:16:59.586Z,6.15
2022-08-18T07:19:30.397Z,6.50
2022-08-18T07:22:08.672Z,6.62
2022-08-18T07:24:47.671Z,6.50
2022-08-18T07:27:18.894Z,6.28
2022-08-18T07:30:13.934Z,6.35
2022-08-18T07:32:53.676Z,6.53
2022-08-18T07:35:45.781Z,6.62
2022-08-18T07:38:41.861Z,6.80
2022-08-18T07:41:19.287Z,6.17
2022-08-18T07:43:52.071Z,5.97
2022-08-18T07:46:23.599Z,6.03
2022-08-18T07:48:50.569Z,5.50
2022-08-18T07:51:24.372Z,5.55
2022-08-18T07:54:04.979Z,5.80
2022-08-18T07:56:48.147Z,5.32
2022-08-18T07:59:48.601Z,4.20
2022-08-18T08:02:20.211Z,4.62
2022-08-18T08:05:02.217Z,4.47
2022-08-18T08:07:59.237Z,4.50
2022-08-18T08:10:33.321Z,4.32
2022-08-18T08:13:09.944Z,4.10
2022-08-18T08:15:44.240Z,4.60
2022-08-18T08:18:20.255Z,4.00
2022-08-18T08:20:54.607Z,4.03
2022-08-18T08:24:00.319Z,4.53
2022-08-18T08:26:48.686Z,5.30
2022-08-18T08:29:36.947Z,4.10
2022-08-18T08:32:09.342Z,3.87
2022-08-18T08:34:41.196Z,4.00
2022-08-18T08:37:19.025Z,3.97
2022-08-18T08:39:55.517Z,4.45
2022-08-18T08:43:09.009Z,4.07
2022-08-18T08:45:39.715Z,3.90
2022-08-18T08:48:28.473Z,4.12
2022-08-18T08:51:10.198Z,4.53
2022-08-18T08:53:47.401Z,4.28
2022-08-18T08:56:16.508Z,4.15
2022-08-18T08:58:52.498Z,4.18
2022-08-18T09:01:48.019Z,4.20
2022-08-18T09:04:21.262Z,4.40
2022-08-18T09:06:53.789Z,3.92
2022-08-18T09:09:42.720Z,4.32
2022-08-18T09:12:37.589Z,3.97
2022-08-18T09:15:19.583Z,4.35
2022-08-18T09:17:50.895Z,3.67
2022-08-18T09:20:36.991Z,4.03
2022-08-18T09:23:18.714Z,4.10
2022-08-18T09:25:49.744Z,4.10
2022-08-18T09:28:20.143Z,4.07
2022-08-18T09:31:02.644Z,4.22
2022-08-18T09:33:44.267Z,4.43
2022-08-18T09:36:54.388Z,4.32
2022-08-18T09:40:14.500Z,3.62
2022-08-18T09:42:55.268Z,4.70
2022-08-18T09:45:33.567Z,4.40
2022-08-18T09:48:31.704Z,4.37
2022-08-18T09:51:17.539Z,4.50
2022-08-18T09:53:48.041Z,4.40
2022-08-18T09:56:19.597Z,4.28
2022-08-18T09:59:00.502Z,4.30
2022-08-18T10:01:30.508Z,4.78
2022-08-18T10:04:15.516Z,4.50
2022-08-18T10:06:55.559Z,4.22
2022-08-18T10:09:36.530Z,4.20
2022-08-18T10:12:41.703Z,3.50
2022-08-18T10:15:33.265Z,4.20
2022-08-18T10:18:45.216Z,4.30
2022-08-18T10:21:21.049Z,4.25
2022-08-18T10:26:38.476Z,4.00
2022-08-18T10:29:08.947Z,4.45
2022-08-18T10:31:58.648Z,3.75
2022-08-18T10:34:40.829Z,3.53
2022-08-18T10:37:26.764Z,3.90
2022-08-18T10:39:59.329Z,3.80
2022-08-18T10:42:34.243Z,3.95
2022-08-18T10:48:30.723Z,3.78
2022-08-18T10:51:59.451Z,3.78
2022-08-18T10:54:32.245Z,4.87
2022-08-18T10:57:13.254Z,3.45
2022-08-18T10:59:54.618Z,4.30
2022-08-18T11:05:31.809Z,3.92
2022-08-18T11:08:03.042Z,4.35
2022-08-18T11:11:32.718Z,3.80
2022-08-18T11:13:56.669Z,4.05
2022-08-18T11:16:46.209Z,4.50
2022-08-18T11:19:14.802Z,3.75
2022-08-18T11:21:51.230Z,4.22
2022-08-18T11:24:23.332Z,4.25
2022-08-18T11:26:57.129Z,3.33
2022-08-18T11:29:39.785Z,3.92
2022-08-18T11:32:22.285Z,3.92
2022-08-18T11:35:03.550Z,3.92
2022-08-18T11:37:51.527Z,3.78
2022-08-18T11:41:08.930Z,4.37
2022-08-18T11:43:24.978Z,4.10
2022-08-18T11:45:59.779Z,3.70
2022-08-18T11:48:46.427Z,3.92
2022-08-18T11:51:17.670Z,3.67
2022-08-18T11:54:23.259Z,3.87
2022-08-18T11:56:51.580Z,4.03
2022-08-18T12:02:25.562Z,3.92
2022-08-18T12:04:57.742Z,3.53
2022-08-18T12:07:33.921Z,4.10
2022-08-18T12:13:24.645Z,3.78
2022-08-18T12:16:12.109Z,3.65
2022-08-18T12:18:39.070Z,5.35
2022-08-18T12:21:06.460Z,4.07
2022-08-18T12:26:38.465Z,4.97
2022-08-18T12:29:11.011Z,4.00
2022-08-18T12:31:42.649Z,3.60
2022-08-18T12:34:26.298Z,3.85
2022-08-18T12:36:56.742Z,3.28
2022-08-18T12:42:11.612Z,3.50
2022-08-18T12:44:41.584Z,4.68
2022-08-18T12:47:16.731Z,3.97
2022-08-18T12:49:43.881Z,3.65
2022-08-18T12:52:14.048Z,4.30
2022-08-18T12:54:55.267Z,3.72
2022-08-18T12:57:52.204Z,4.12
2022-08-18T13:00:16.867Z,3.37
2022-08-18T13:02:45.776Z,3.80
2022-08-18T13:05:12.765Z,3.58
2022-08-18T13:07:39.698Z,3.78
2022-08-18T13:10:07.189Z,3.78
2022-08-18T13:12:48.594Z,3.22
2022-08-18T13:15:16.852Z,3.60
2022-08-18T13:17:46.836Z,3.95
2022-08-18T13:20:16.824Z,3.45
2022-08-18T13:22:43.753Z,3.40
2022-08-18T13:25:32.694Z,3.12
2022-08-18T13:28:01.723Z,4.12
2022-08-18T13:30:31.488Z,3.62
2022-08-18T13:33:02.260Z,3.22
2022-08-18T13:35:38.443Z,3.50
2022-08-18T13:38:26.150Z,3.30
2022-08-18T13:40:56.822Z,3.50
2022-08-18T13:43:30.334Z,3.25
2022-08-18T13:45:57.504Z,2.67
2022-08-18T13:48:25.761Z,3.17
2022-08-18T13:50:58.581Z,3.65
2022-08-18T13:53:28.731Z,3.47
2022-08-18T13:55:59.537Z,3.40
2022-08-18T13:58:29.787Z,3.20
2022-08-18T14:01:15.808Z,3.17
2022-08-18T14:06:15.895Z,3.80
2022-08-18T14:08:49.718Z,2.87
2022-08-18T14:11:17.601Z,3.58
2022-08-18T14:13:45.215Z,3.10
2022-08-18T14:16:16.279Z,3.00
2022-08-18T14:19:09.940Z,3.50
2022-08-18T14:22:00.449Z,2.97
2022-08-18T14:24:48.832Z,3.40
2022-08-18T14:27:20.625Z,3.30
2022-08-18T14:29:49.721Z,3.20
2022-08-18T14:32:29.308Z,2.65
2022-08-18T14:35:33.528Z,3.55
2022-08-18T14:37:49.828Z,3.45
2022-08-18T14:40:17.500Z,3.03
2022-08-18T14:42:55.149Z,3.03
2022-08-18T14:45:28.010Z,2.95
2022-08-18T14:48:02.354Z,3.15
2022-08-18T14:50:33.759Z,3.05
2022-08-18T14:53:02.109Z,2.83
2022-08-18T14:55:30.534Z,2.70
2022-08-18T14:57:59.281Z,3.00
2022-08-18T15:00:27.054Z,3.15
2022-08-18T15:02:54.647Z,3.05
2022-08-18T15:05:24.407Z,3.78
2022-08-18T15:07:53.087Z,3.17
2022-08-18T15:10:23.583Z,3.40
2022-08-18T15:12:55.506Z,3.33
2022-08-18T15:15:22.907Z,3.10
2022-08-18T15:17:53.064Z,3.00
2022-08-18T15:20:28.706Z,3.62
2022-08-18T15:23:24.834Z,3.15
2022-08-18T15:25:55.218Z,3.85
2022-08-18T15:28:26.569Z,2.97
2022-08-18T15:33:41.880Z,3.72
2022-08-18T15:36:10.291Z,3.20
2022-08-18T15:38:43.014Z,3.75
2022-08-18T15:41:10.105Z,3.45
2022-08-18T15:43:46.079Z,3.65
2022-08-18T15:46:14.056Z,3.15
2022-08-18T15:48:43.988Z,3.60
2022-08-18T15:51:12.210Z,3.90
2022-08-18T15:53:44.983Z,3.30
2022-08-18T15:56:16.297Z,3.08
2022-08-18T15:58:48.226Z,3.85
2022-08-18T16:01:21.202Z,3.85
2022-08-18T16:03:57.947Z,3.62
2022-08-18T16:06:27.734Z,3.25
2022-08-18T16:08:59.846Z,3.80
2022-08-18T16:11:29.258Z,3.75
2022-08-18T16:14:01.029Z,3.60
2022-08-18T16:16:35.884Z,3.50
2022-08-18T16:19:07.107Z,3.55
2022-08-18T16:21:34.562Z,3.55
2022-08-18T16:24:01.521Z,3.58
2022-08-18T16:26:28.879Z,3.60
2022-08-18T16:28:57.486Z,3.85
2022-08-18T16:31:26.865Z,3.92
2022-08-18T16:33:55.000Z,3.70
2022-08-18T16:36:26.695Z,3.55
2022-08-18T16:38:58.148Z,3.40
2022-08-18T16:41:26.461Z,4.00
2022-08-18T16:43:53.527Z,3.55
2022-08-18T16:46:25.401Z,3.90
2022-08-18T16:48:53.306Z,3.78
2022-08-18T16:51:22.391Z,4.12
2022-08-18T16:53:52.651Z,4.22
2022-08-18T16:56:22.681Z,3.72
2022-08-18T16:59:08.604Z,4.00
2022-08-18T17:01:55.061Z,3.95
2022-08-18T17:06:50.881Z,4.95
2022-08-18T17:09:19.483Z,4.53
2022-08-18T17:11:51.427Z,3.83
2022-08-18T17:14:23.214Z,4.05
2022-08-18T17:16:55.193Z,4.12
2022-08-18T17:19:30.092Z,3.90
2022-08-18T17:21:57.043Z,5.12
2022-08-18T17:24:31.759Z,4.00
2022-08-18T17:27:25.545Z,4.37
2022-08-18T17:30:00.687Z,3.78
2022-08-18T17:32:47.091Z,3.60
2022-08-18T17:35:20.537Z,4.82
2022-08-18T17:37:59.473Z,4.00
2022-08-18T17:40:46.331Z,3.72
2022-08-18T17:43:17.236Z,3.83
2022-08-18T17:45:47.606Z,4.25
2022-08-18T17:48:22.719Z,3.72
2022-08-18T17:51:14.801Z,4.80
2022-08-18T17:53:42.204Z,4.25
2022-08-18T17:56:22.223Z,4.18
2022-08-18T17:59:45.261Z,3.75
2022-08-18T18:02:19.024Z,4.05
2022-08-18T18:04:58.423Z,3.95
2022-08-18T18:07:38.529Z,3.92
2022-08-18T18:10:15.635Z,3.80
2022-08-18T18:12:42.567Z,3.75
2022-08-18T18:15:12.094Z,3.80
2022-08-18T18:17:41.398Z,3.80
2022-08-18T18:20:38.199Z,3.92
2022-08-18T18:23:33.075Z,4.07
2022-08-18T18:26:00.044Z,3.90
2022-08-18T18:28:30.700Z,3.58
2022-08-18T18:30:59.504Z,3.45
2022-08-18T18:33:30.656Z,3.78
2022-08-18T18:35:59.740Z,4.72
2022-08-18T18:38:33.409Z,4.45
2022-08-18T18:41:03.122Z,3.83
2022-08-18T18:43:39.635Z,4.07
2022-08-18T18:46:31.333Z,4.00
2022-08-18T18:49:15.941Z,3.83
2022-08-18T18:51:58.019Z,3.92
2022-08-18T18:54:33.094Z,3.70
2022-08-18T18:57:00.590Z,4.30
2022-08-18T18:59:35.501Z,4.22
2022-08-18T19:02:33.172Z,4.07
2022-08-18T19:05:22.923Z,4.05
2022-08-18T19:07:59.585Z,3.80
2022-08-18T19:10:49.575Z,3.78
2022-08-18T19:13:32.212Z,4.25
2022-08-18T19:16:23.338Z,4.07
2022-08-18T19:18:57.785Z,4.07
2022-08-18T19:22:03.728Z,4.15
2022-08-18T19:24:30.185Z,3.80
2022-08-18T19:27:00.712Z,3.85
2022-08-18T19:29:32.396Z,4.22
2022-08-18T19:32:07.939Z,3.65
2022-08-18T19:34:51.541Z,4.60
2022-08-18T19:37:31.663Z,3.75
2022-08-18T19:40:37.248Z,4.30
2022-08-18T19:43:12.636Z,4.10
2022-08-18T19:46:01.996Z,4.20
2022-08-18T19:48:35.025Z,3.97
2022-08-18T19:51:14.274Z,4.18
2022-08-18T19:54:06.913Z,4.07
2022-08-18T19:56:44.383Z,4.03
2022-08-18T19:59:34.050Z,3.97
2022-08-18T20:02:35.335Z,3.80
2022-08-18T20:05:44.028Z,3.78
2022-08-18T20:08:29.265Z,3.67
2022-08-18T20:11:15.504Z,3.90
2022-08-18T20:13:44.729Z,3.78
2022-08-18T20:16:24.672Z,4.18
2022-08-18T20:18:57.545Z,4.28
2022-08-18T20:21:41.482Z,4.07
2022-08-18T20:24:32.875Z,4.15
2022-08-18T20:27:30.222Z,5.05
2022-08-18T20:30:22.330Z,4.53
2022-08-18T20:33:10.462Z,3.95
2022-08-18T20:35:52.515Z,4.45
2022-08-18T20:38:28.245Z,4.12
2022-08-18T20:40:55.929Z,4.45
2022-08-18T20:43:33.729Z,3.85
2022-08-18T20:46:18.504Z,4.25
2022-08-18T20:49:06.635Z,4.10
2022-08-18T20:51:39.621Z,4.35
2022-08-18T20:54:28.453Z,4.20
2022-08-18T20:57:00.978Z,4.93
2022-08-18T20:59:39.237Z,4.25
2022-08-18T21:02:24.354Z,5.10
2022-08-18T21:04:54.657Z,4.00
2022-08-18T21:07:36.400Z,3.97
2022-08-18T21:10:13.518Z,4.25
2022-08-18T21:12:52.554Z,4.25
2022-08-18T21:15:28.558Z,4.47
2022-08-18T21:18:00.500Z,4.83
2022-08-18T21:20:28.716Z,4.37
2022-08-18T21:23:06.826Z,4.28
2022-08-18T21:25:34.276Z,4.20
2022-08-18T21:28:04.041Z,4.47
2022-08-18T21:30:32.142Z,4.80
2022-08-18T21:32:59.182Z,4.65
2022-08-18T21:35:34.198Z,4.40
2022-08-18T21:38:05.772Z,4.18
2022-08-18T21:40:39.210Z,4.72
2022-08-18T21:43:07.646Z,4.90
2022-08-18T21:45:47.796Z,4.30
2022-08-18T21:48:15.177Z,4.50
2022-08-18T21:50:51.268Z,4.28
2022-08-18T21:53:28.283Z,4.32
2022-08-18T21:55:56.505Z,4.45
2022-08-18T21:58:32.800Z,4.53
2022-08-18T22:01:10.970Z,4.80
2022-08-18T22:03:52.577Z,4.75
2022-08-18T22:06:40.648Z,4.60
2022-08-18T22:09:29.128Z,4.50
2022-08-18T22:12:45.015Z,4.78
2022-08-18T22:15:14.849Z,4.22
2022-08-18T22:17:43.460Z,5.10
2022-08-18T22:20:48.770Z,4.75
2022-08-18T22:23:34.089Z,4.87
2022-08-18T22:26:26.599Z,4.43
2022-08-18T22:29:19.022Z,4.50
2022-08-18T22:31:48.536Z,4.70
2022-08-18T22:34:28.015Z,5.25
2022-08-18T22:37:00.846Z,4.93
2022-08-18T22:39:46.465Z,4.80
2022-08-18T22:42:15.005Z,4.20
2022-08-18T22:44:42.568Z,4.30
2022-08-18T22:47:10.393Z,4.35
2022-08-18T22:49:37.331Z,4.60
2022-08-18T22:52:08.917Z,4.90
2022-08-18T22:54:35.849Z,4.40
2022-08-18T22:57:02.873Z,4.55
2022-08-18T22:59:33.458Z,4.90
2022-08-18T23:02:01.324Z,4.65
2022-08-18T23:04:28.350Z,4.40
2022-08-18T23:06:55.914Z,3.90
2022-08-18T23:09:28.590Z,4.87
2022-08-18T23:11:59.328Z,4.60
2022-08-18T23:14:26.613Z,4.90
2022-08-18T23:16:53.539Z,4.43
2022-08-18T23:19:21.427Z,4.70
2022-08-18T23:21:48.992Z,4.60
2022-08-18T23:24:17.292Z,5.00
2022-08-18T23:26:44.385Z,4.78
2022-08-18T23:29:12.805Z,4.87
2022-08-18T23:31:41.231Z,4.22
2022-08-18T23:34:08.785Z,4.10
2022-08-18T23:36:41.255Z,4.32
2022-08-18T23:39:10.999Z,4.53
2022-08-18T23:41:38.505Z,4.62
2022-08-18T23:44:06.769Z,4.85
2022-08-18T23:46:34.053Z,4.72
2022-08-18T23:49:02.910Z,4.62
2022-08-18T23:51:37.577Z,4.95
2022-08-18T23:54:08.012Z,4.45
2022-08-18T23:56:36.302Z,4.60
2022-08-18T23:59:05.326Z,5.10
